Time;durP1;ratioP1;P1;durP2;ratioP2;P2;SDS_P1;SDS_P2;PMS_P1;PMS_P2;Temp;Humidity;BMP_temperature;BMP_pressure;BME280_temperature;BME280_humidity;BME280_pressure;Samples;Min_cycle;Max_cycle;Signal;HPM_P1;HPM_P2
2022/11/25 00:00:52;;;;;;;16.98;3.10;;;;;;;7.97;100.00;100908.25;4807125;29;20452;-78
2022/11/25 00:03:17;;;;;;;18.65;3.47;;;;;;;7.95;100.00;100910.88;4824479;29;20054;-78
2022/11/25 00:05:43;;;;;;;16.35;3.47;;;;;;;7.96;100.00;100903.84;4823892;29;20058;-77
2022/11/25 00:08:09;;;;;;;14.57;2.97;;;;;;;8.00;100.00;100902.91;4807438;29;20038;-78
2022/11/25 00:10:34;;;;;;;18.60;3.55;;;;;;;8.00;100.00;100902.91;4823739;29;20110;-78
2022/11/25 00:13:00;;;;;;;14.18;2.80;;;;;;;8.02;100.00;100900.28;4819034;29;20530;-78
2022/11/25 00:15:25;;;;;;;15.38;3.15;;;;;;;8.01;100.00;100895.88;4829331;29;20081;-78
2022/11/25 00:17:51;;;;;;;19.13;3.50;;;;;;;8.03;100.00;100897.59;4807108;29;20082;-78
2022/11/25 00:20:19;;;;;;;13.90;3.10;;;;;;;8.06;100.00;100889.69;4823618;29;20038;-78
2022/11/25 00:22:44;;;;;;;15.75;4.05;;;;;;;8.07;100.00;100894.06;4823692;29;20046;-78
2022/11/25 00:25:10;;;;;;;17.85;3.83;;;;;;;8.09;100.00;100889.66;4823605;29;20053;-78
2022/11/25 00:27:36;;;;;;;14.60;2.85;;;;;;;8.13;100.00;100887.84;4806566;29;20031;-78
2022/11/25 00:30:02;;;;;;;14.77;2.92;;;;;;;8.16;100.00;100888.69;4804709;29;20034;-78
2022/11/25 00:32:28;;;;;;;14.55;2.95;;;;;;;8.16;100.00;100888.69;4807008;29;20115;-78
2022/11/25 00:34:53;;;;;;;20.88;3.75;;;;;;;8.17;100.00;100879.00;4808606;29;20487;-78
2022/11/25 00:37:18;;;;;;;14.82;3.30;;;;;;;8.18;100.00;100884.28;4795078;29;20033;-78
2022/11/25 00:39:44;;;;;;;25.33;3.60;;;;;;;8.20;100.00;100876.31;4829061;29;20452;-78
2022/11/25 00:44:53;;;;;;;17.30;3.38;;;;;;;8.24;100.00;100885.09;4827532;29;20133;-78
2022/11/25 00:47:20;;;;;;;19.27;3.20;;;;;;;8.23;100.00;100884.19;4825206;29;20116;-78
2022/11/25 00:49:51;;;;;;;15.98;3.13;;;;;;;8.21;100.00;100875.47;4841482;29;20120;-78
2022/11/25 00:52:19;;;;;;;15.82;3.30;;;;;;;8.23;100.00;100878.91;4841344;29;20061;-78
2022/11/25 00:54:47;;;;;;;17.75;3.50;;;;;;;8.25;100.00;100876.28;4824546;29;20106;-78
2022/11/25 00:57:14;;;;;;;12.10;3.00;;;;;;;8.24;100.00;100878.03;4824959;29;20220;-78
2022/11/25 00:59:40;;;;;;;13.38;3.10;;;;;;;8.28;100.00;100876.22;4800415;29;20052;-78
2022/11/25 01:02:06;;;;;;;18.77;3.30;;;;;;;8.30;100.00;100879.72;4811457;29;20046;-78
2022/11/25 01:04:32;;;;;;;20.48;3.78;;;;;;;8.30;100.00;100888.50;4825142;29;20052;-78
2022/11/25 01:06:58;;;;;;;18.25;2.92;;;;;;;8.31;100.00;100886.78;4804886;29;20598;-78
2022/11/25 01:09:25;;;;;;;23.13;3.78;;;;;;;8.30;100.00;100880.59;4824608;29;20136;-78
2022/11/25 01:11:51;;;;;;;19.50;3.53;;;;;;;8.30;100.00;100875.31;4828033;29;20555;-78
2022/11/25 01:14:20;;;;;;;19.52;3.45;;;;;;;8.31;100.00;100885.00;4828506;29;20482;-78
2022/11/25 01:16:47;;;;;;;15.38;3.05;;;;;;;8.31;100.00;100878.84;4828553;29;20445;-78
2022/11/25 01:19:13;;;;;;;17.30;3.45;;;;;;;8.31;100.00;100885.00;4825552;29;20044;-79
2022/11/25 01:21:39;;;;;;;15.45;3.22;;;;;;;8.31;100.00;100885.00;4813814;29;20031;-78
2022/11/25 01:24:06;;;;;;;16.88;3.28;;;;;;;8.33;100.00;100890.25;4810054;29;20065;-78
2022/11/25 01:26:34;;;;;;;23.13;3.80;;;;;;;8.34;100.00;100878.81;4809921;29;20129;-79
2022/11/25 01:29:03;;;;;;;13.80;2.95;;;;;;;8.37;100.00;100886.69;4822111;29;20055;-78
2022/11/25 01:31:34;;;;;;;20.15;3.47;;;;;;;8.39;100.00;100892.81;4810411;29;20519;-78
2022/11/25 01:34:06;;;;;;;21.00;3.05;;;;;;;8.40;100.00;100900.75;4810022;29;20106;-78
2022/11/25 01:36:33;;;;;;;17.50;3.00;;;;;;;8.42;100.00;100894.59;4792393;29;20035;-78
2022/11/25 01:39:02;;;;;;;19.58;4.05;;;;;;;8.46;100.00;100901.59;4794843;29;20046;-79
2022/11/25 01:41:29;;;;;;;24.38;4.15;;;;;;;8.46;100.00;100910.38;4809963;29;20079;-78
2022/11/25 01:44:08;;;;;;;11.38;3.25;;;;;;;8.48;100.00;100899.78;4809691;29;20455;-78
2022/11/25 01:46:57;;;;;;;13.65;3.35;;;;;;;8.52;100.00;100914.69;4809540;29;20479;-78
2022/11/25 01:49:35;;;;;;;14.55;3.22;;;;;;;8.50;100.00;100914.69;4825824;29;20117;-78
2022/11/25 01:52:12;;;;;;;14.25;2.60;;;;;;;8.57;100.00;100923.41;4809904;29;20079;-79
2022/11/25 01:54:48;;;;;;;17.55;3.28;;;;;;;8.56;99.89;100919.91;4809135;29;20058;-78
2022/11/25 01:57:20;;;;;;;20.88;3.90;;;;;;;8.59;100.00;100916.38;4825740;29;20063;-78
2022/11/25 01:59:51;;;;;;;15.95;3.63;;;;;;;8.65;100.00;100918.03;4807404;29;20034;-78
2022/11/25 02:02:19;;;;;;;16.52;3.20;;;;;;;8.66;99.85;100928.59;4825935;29;20039;-78
2022/11/25 02:04:45;;;;;;;16.98;4.00;;;;;;;8.72;99.68;100927.63;4825540;29;20604;-78
2022/11/25 02:07:39;;;;;;;17.52;3.03;;;;;;;8.85;98.83;100939.78;4825715;29;20122;-78
2022/11/25 02:10:13;;;;;;;21.02;3.70;;;;;;;8.86;98.80;100941.53;4824860;29;20058;-78
2022/11/25 02:12:43;;;;;;;17.23;3.45;;;;;;;8.85;99.29;100950.34;4794664;29;20045;-77
2022/11/25 02:15:09;;;;;;;16.85;3.83;;;;;;;8.87;99.08;100945.03;4809241;29;20038;-77
2022/11/25 02:17:36;;;;;;;22.42;3.55;;;;;;;8.87;99.31;100940.63;4794378;29;20058;-78
2022/11/25 02:20:12;;;;;;;14.75;3.65;;;;;;;8.87;99.93;100955.63;4808862;29;20399;-78
2022/11/25 02:23:02;;;;;;;17.73;3.47;;;;;;;8.87;100.00;100956.47;4808365;29;20562;-78
2022/11/25 02:25:31;;;;;;;16.13;3.05;;;;;;;8.85;100.00;100958.25;4808927;29;20038;-79
2022/11/25 02:28:02;;;;;;;15.68;3.33;;;;;;;8.85;100.00;100955.63;4806036;29;20380;-78
2022/11/25 02:30:27;;;;;;;19.65;4.28;;;;;;;8.85;99.89;100950.34;4820585;29;20046;-78
2022/11/25 02:32:53;;;;;;;18.30;3.35;;;;;;;8.82;100.00;100967.09;4793703;29;20090;-78
2022/11/25 02:35:27;;;;;;;18.10;3.53;;;;;;;8.82;100.00;100964.47;4825172;29;20130;-78
2022/11/25 02:37:55;;;;;;;18.13;3.25;;;;;;;8.77;100.00;100960.13;4825104;29;20048;-79
2022/11/25 02:40:22;;;;;;;17.92;3.80;;;;;;;8.76;100.00;100961.03;4808898;29;20034;-80
2022/11/25 02:42:49;;;;;;;24.83;4.43;;;;;;;8.73;100.00;100972.50;4793882;29;20065;-79
2022/11/25 02:45:20;;;;;;;13.73;2.72;;;;;;;8.68;100.00;100970.81;4793577;29;20466;-78
2022/11/25 02:47:46;;;;;;;10.43;2.28;;;;;;;8.68;100.00;100973.44;4808538;29;20409;-78
2022/11/25 02:50:12;;;;;;;14.63;3.03;;;;;;;8.65;100.00;100974.34;4793397;29;20071;-77
2022/11/25 02:52:38;;;;;;;17.23;4.00;;;;;;;8.58;100.00;100978.84;4808612;29;20049;-78
2022/11/25 02:55:04;;;;;;;14.95;2.65;;;;;;;8.56;100.00;100967.44;4808216;29;20129;-79
2022/11/25 02:57:30;;;;;;;12.95;3.13;;;;;;;8.53;100.00;100970.13;4793494;29;20042;-78
2022/11/25 02:59:55;;;;;;;16.65;2.95;;;;;;;8.50;100.00;100962.22;4807433;29;20108;-77
2022/11/25 03:02:21;;;;;;;11.45;2.63;;;;;;;8.49;100.00;100959.59;4824739;29;20115;-78
2022/11/25 03:04:46;;;;;;;10.93;2.72;;;;;;;8.43;100.00;100938.53;4793258;29;20049;-78
2022/11/25 03:07:12;;;;;;;20.52;3.88;;;;;;;8.37;100.00;100892.84;4778486;29;20054;-78
2022/11/25 03:09:38;;;;;;;14.50;2.72;;;;;;;8.34;100.00;100884.97;4793252;29;20070;-77
2022/11/25 03:12:19;;;;;;;11.00;2.65;;;;;;;8.34;100.00;100894.66;4824850;29;20077;-77
2022/11/25 03:14:44;;;;;;;12.50;2.58;;;;;;;8.31;100.00;100916.66;4824599;29;20049;-78
2022/11/25 03:17:10;;;;;;;15.65;2.83;;;;;;;8.28;100.00;100924.59;4793181;29;20069;-78
2022/11/25 03:19:37;;;;;;;11.77;3.25;;;;;;;8.27;100.00;100941.31;4793175;29;20034;-77
2022/11/25 03:22:03;;;;;;;8.95;2.42;;;;;;;8.26;100.00;100943.97;4793214;29;20114;-76
2022/11/25 03:24:29;;;;;;;14.10;2.30;;;;;;;8.23;100.00;100949.28;4824562;29;20404;-76
2022/11/25 03:26:54;;;;;;;8.48;2.22;;;;;;;8.21;100.00;100956.34;4810209;29;20034;-76
2022/11/25 03:29:20;;;;;;;12.80;2.85;;;;;;;8.19;100.00;100954.59;4809044;29;20046;-76
2022/11/25 03:31:46;;;;;;;13.68;2.45;;;;;;;8.17;100.00;100950.22;4808749;29;20467;-76
2022/11/25 03:34:12;;;;;;;14.50;2.58;;;;;;;8.17;100.00;100934.41;4793135;29;20073;-76
2022/11/25 03:36:38;;;;;;;10.10;2.28;;;;;;;8.16;100.00;100951.13;4808117;29;20061;-76
2022/11/25 03:39:04;;;;;;;10.85;2.45;;;;;;;8.15;100.00;100962.56;4820452;29;20030;-76
2022/11/25 03:41:29;;;;;;;12.40;2.67;;;;;;;8.14;100.00;100972.25;4824390;29;20042;-76
2022/11/25 03:43:55;;;;;;;11.90;2.80;;;;;;;8.11;100.00;100966.09;4807488;29;20046;-76
2022/11/25 03:46:21;;;;;;;14.23;2.25;;;;;;;8.11;100.00;100977.56;4792546;29;20586;-76
2022/11/25 03:48:47;;;;;;;13.88;2.95;;;;;;;8.09;100.00;100978.47;4792362;29;20042;-76
2022/11/25 03:51:13;;;;;;;11.25;2.50;;;;;;;8.09;100.00;100981.09;4792267;29;20110;-77
2022/11/25 03:53:38;;;;;;;12.93;2.92;;;;;;;8.09;100.00;100986.38;4777358;29;20500;-76
2022/11/25 03:56:07;;;;;;;11.05;2.75;;;;;;;8.07;100.00;100988.13;4807432;29;20041;-76
2022/11/25 03:58:33;;;;;;;11.40;2.47;;;;;;;8.03;100.00;100979.38;4791437;29;20053;-76
2022/11/25 04:01:00;;;;;;;9.10;2.22;;;;;;;8.00;100.00;100976.75;4792326;29;20042;-76
2022/11/25 04:03:26;;;;;;;12.10;2.00;;;;;;;7.98;100.00;100982.03;4792291;29;20046;-76
2022/11/25 04:05:51;;;;;;;9.40;2.05;;;;;;;7.95;100.00;100987.34;4807285;29;20047;-76
2022/11/25 04:08:17;;;;;;;9.70;2.22;;;;;;;7.92;100.00;100986.50;4807044;29;20124;-76
2022/11/25 04:10:44;;;;;;;6.30;1.90;;;;;;;7.90;100.00;101001.47;4792744;29;20049;-76
2022/11/25 04:13:10;;;;;;;8.32;2.03;;;;;;;7.85;100.00;100998.00;4792219;29;20503;-76
2022/11/25 04:15:48;;;;;;;7.50;1.80;;;;;;;7.84;100.00;101012.94;4807293;29;20531;-76
2022/11/25 04:18:16;;;;;;;7.55;1.98;;;;;;;7.83;100.00;101015.59;4807106;29;20061;-76
2022/11/25 04:20:42;;;;;;;12.52;2.17;;;;;;;7.81;100.00;101018.22;4792296;29;20042;-76
2022/11/25 04:23:09;;;;;;;10.05;1.95;;;;;;;7.80;100.00;101020.88;4807153;29;20050;-76
2022/11/25 04:25:41;;;;;;;5.68;1.70;;;;;;;7.79;100.00;101030.56;4807026;29;20027;-76
2022/11/25 04:28:13;;;;;;;9.25;1.92;;;;;;;7.79;100.00;101034.94;4802247;29;20570;-77
2022/11/25 04:30:39;;;;;;;9.60;1.95;;;;;;;7.73;100.00;101028.81;4791609;29;20081;-77
2022/11/25 04:33:06;;;;;;;8.35;2.60;;;;;;;7.75;100.00;101036.75;4807100;29;20046;-77
2022/11/25 04:35:31;;;;;;;9.50;1.85;;;;;;;7.73;100.00;101041.13;4791763;29;20034;-77
2022/11/25 04:37:57;;;;;;;7.32;1.60;;;;;;;7.72;100.00;101042.03;4776997;29;20042;-77
2022/11/25 04:40:24;;;;;;;4.15;1.50;;;;;;;7.71;100.00;101043.78;4792060;29;20066;-77
2022/11/25 04:42:58;;;;;;;5.45;1.42;;;;;;;7.71;100.00;101049.03;4792999;29;20129;-77
2022/11/25 04:45:24;;;;;;;7.65;1.77;;;;;;;7.70;100.00;101047.31;4806452;29;20448;-77
2022/11/25 04:47:52;;;;;;;7.72;1.80;;;;;;;7.68;100.00;101056.13;4806533;29;20472;-77
2022/11/25 04:50:21;;;;;;;8.93;1.40;;;;;;;7.65;100.00;101051.75;4777003;29;20049;-77
2022/11/25 04:53:02;;;;;;;6.55;1.50;;;;;;;7.65;100.00;101051.75;4806669;29;20086;-77
2022/11/25 04:55:28;;;;;;;6.00;1.35;;;;;;;7.62;100.00;101043.00;4806473;29;20054;-77
2022/11/25 04:57:55;;;;;;;5.63;1.55;;;;;;;7.63;100.00;101055.28;4806599;29;20039;-78
2022/11/25 05:00:21;;;;;;;4.35;1.27;;;;;;;7.63;100.00;101061.41;4790783;29;20042;-77
2022/11/25 05:02:48;;;;;;;3.13;1.20;;;;;;;7.59;100.00;101064.97;4806707;29;20054;-77
2022/11/25 05:05:18;;;;;;;4.97;1.20;;;;;;;7.61;100.00;101064.94;4806524;29;20069;-77
2022/11/25 05:07:44;;;;;;;3.72;1.20;;;;;;;7.57;100.00;101079.00;4823176;29;20045;-77
2022/11/25 05:10:10;;;;;;;3.33;1.20;;;;;;;7.53;100.00;101071.13;4806423;29;20511;-77
2022/11/25 05:12:40;;;;;;;3.80;1.13;;;;;;;7.49;100.00;101081.69;4806786;29;20071;-77
2022/11/25 05:15:10;;;;;;;3.70;1.55;;;;;;;7.47;100.00;101081.72;4806379;29;20038;-77
2022/11/25 05:17:38;;;;;;;4.00;1.10;;;;;;;7.46;100.00;101079.09;4806510;29;20035;-77
2022/11/25 05:20:06;;;;;;;6.38;1.20;;;;;;;7.43;100.00;101077.34;4806294;29;20084;-77
2022/11/25 05:22:34;;;;;;;5.05;1.35;;;;;;;7.42;100.00;101069.44;4806928;29;20038;-77
2022/11/25 05:25:00;;;;;;;5.32;1.42;;;;;;;7.39;100.00;101078.22;4806231;29;20049;-77
2022/11/25 05:27:27;;;;;;;5.15;1.10;;;;;;;7.33;100.00;101078.28;4776731;29;20215;-77
2022/11/25 05:29:53;;;;;;;4.63;1.35;;;;;;;7.39;100.00;101085.25;4786482;29;20034;-77
2022/11/25 05:32:19;;;;;;;6.85;1.60;;;;;;;7.35;100.00;101089.69;4807057;29;20054;-78
2022/11/25 05:34:44;;;;;;;5.80;1.70;;;;;;;7.30;100.00;101087.06;4791847;29;20209;-77
2022/11/25 05:37:12;;;;;;;6.45;1.70;;;;;;;7.27;100.00;101091.44;4806472;29;20491;-77
2022/11/25 05:39:42;;;;;;;9.32;2.08;;;;;;;7.26;100.00;101094.97;4806306;29;20038;-77
2022/11/25 05:42:33;;;;;;;5.72;1.67;;;;;;;7.19;100.00;101091.50;4820799;29;20058;-77
2022/11/25 05:45:02;;;;;;;8.02;1.90;;;;;;;7.16;100.00;101088.00;4791818;29;20038;-77
2022/11/25 05:47:28;;;;;;;3.50;1.48;;;;;;;7.14;100.00;101093.25;4784113;30;20059;-77
2022/11/25 05:49:54;;;;;;;4.50;1.45;;;;;;;7.14;100.00;101090.63;4769228;30;20130;-77
2022/11/25 05:52:19;;;;;;;8.43;1.92;;;;;;;7.11;100.00;101106.44;4769376;30;20051;-77
2022/11/25 05:54:51;;;;;;;8.60;2.35;;;;;;;7.09;100.00;101101.19;4783595;29;20059;-77
2022/11/25 05:57:17;;;;;;;10.02;2.10;;;;;;;7.05;100.00;101101.22;4769701;30;20362;-77
2022/11/25 05:59:53;;;;;;;6.05;1.77;;;;;;;7.00;100.00;101103.88;4786352;29;20047;-84
2022/11/25 06:02:37;;;;;;;6.20;1.85;;;;;;;6.98;100.00;101110.03;4788507;30;20055;-85
2022/11/25 06:05:03;;;;;;;8.15;2.10;;;;;;;6.91;100.00;101108.28;4785750;30;20035;-84
2022/11/25 06:07:28;;;;;;;8.85;2.10;;;;;;;6.92;100.00;101123.19;4774316;30;20047;-85
2022/11/25 06:09:54;;;;;;;6.50;1.95;;;;;;;6.93;100.00;101131.09;4775433;30;20043;-84
2022/11/25 06:12:21;;;;;;;7.28;2.33;;;;;;;6.88;100.00;101120.56;4788707;30;20138;-85
2022/11/25 06:14:49;;;;;;;8.52;2.45;;;;;;;6.85;100.00;101117.06;4790998;30;20051;-85
2022/11/25 06:17:15;;;;;;;8.13;2.35;;;;;;;6.83;100.00;101124.97;4788360;29;20039;-84
2022/11/25 06:19:47;;;;;;;6.20;2.20;;;;;;;6.81;100.00;101124.09;4795681;29;20041;-84
2022/11/25 06:22:13;;;;;;;8.25;2.40;;;;;;;6.77;100.00;101110.94;4794793;29;20043;-84
2022/11/25 06:24:38;;;;;;;8.00;2.35;;;;;;;6.76;100.00;101128.47;4809994;29;20046;-84
2022/11/25 06:27:06;;;;;;;7.93;2.67;;;;;;;6.79;100.00;101136.38;4809739;29;20042;-84
2022/11/25 06:29:34;;;;;;;9.77;3.22;;;;;;;6.79;100.00;101140.75;4809735;29;20410;-84
2022/11/25 06:32:00;;;;;;;8.43;2.80;;;;;;;6.75;100.00;101152.16;4809889;29;20042;-84
2022/11/25 06:34:36;;;;;;;9.13;3.15;;;;;;;6.74;100.00;101148.66;4809600;29;20079;-84
2022/11/25 06:37:04;;;;;;;9.38;2.65;;;;;;;6.73;100.00;101149.56;4809947;29;20042;-85
2022/11/25 06:39:30;;;;;;;7.22;2.47;;;;;;;6.73;100.00;101167.09;4826291;29;20109;-84
2022/11/25 06:41:55;;;;;;;9.05;2.63;;;;;;;6.69;100.00;101155.69;4809665;29;20503;-84
2022/11/25 06:44:21;;;;;;;8.07;2.58;;;;;;;6.67;100.00;101163.56;4790415;29;20096;-84
2022/11/25 06:46:46;;;;;;;10.95;3.25;;;;;;;6.66;100.00;101164.47;4810523;29;20042;-84
2022/11/25 06:49:11;;;;;;;17.60;2.55;;;;;;;6.64;100.00;101165.34;4826367;29;20046;-85
2022/11/25 06:51:37;;;;;;;8.90;2.47;;;;;;;6.61;100.00;101162.72;4833474;29;20050;-84
2022/11/25 06:54:02;;;;;;;10.43;2.50;;;;;;;6.62;100.00;101167.09;4831573;29;20101;-83
2022/11/25 06:56:28;;;;;;;7.75;2.47;;;;;;;6.57;100.00;101161.81;4811950;29;20074;-84
2022/11/25 06:58:54;;;;;;;7.97;2.22;;;;;;;6.55;100.00;101167.97;4825244;29;20046;-85
2022/11/25 07:01:26;;;;;;;9.45;2.83;;;;;;;6.53;100.00;101167.09;4803442;29;20446;-85
2022/11/25 07:03:53;;;;;;;;;;;;;;;6.56;100.00;101173.25;4820689;29;20043;-84
2022/11/25 07:06:19;;;;;;;7.55;2.13;;;;;;;6.50;100.00;101178.47;4812828;29;20374;-84
2022/11/25 07:08:45;;;;;;;8.70;2.38;;;;;;;6.46;100.00;101179.38;4796955;29;20061;-84
2022/11/25 07:11:21;;;;;;;9.88;2.22;;;;;;;6.50;100.00;101190.78;4797036;29;20047;-84
2022/11/25 07:13:50;;;;;;;5.07;1.95;;;;;;;6.47;100.00;101196.91;4819229;29;20191;-84
2022/11/25 07:16:15;;;;;;;8.38;2.00;;;;;;;6.44;100.00;101197.78;4819380;29;20027;-85
2022/11/25 07:18:41;;;;;;;9.65;2.42;;;;;;;6.43;100.00;101193.41;4813584;29;20034;-85
2022/11/25 07:21:12;;;;;;;6.03;2.45;;;;;;;6.40;100.00;101203.91;4823401;29;20050;-85
2022/11/25 07:23:39;;;;;;;10.35;3.20;;;;;;;6.40;100.00;101216.19;4839942;29;20030;-85
2022/11/25 07:26:11;;;;;;;8.43;2.65;;;;;;;6.36;100.00;101220.59;4839142;29;20040;-84
2022/11/25 07:28:38;;;;;;;7.63;2.40;;;;;;;6.36;100.00;101232.88;4830906;29;20048;-85
2022/11/25 07:31:22;;;;;;;6.55;2.20;;;;;;;6.34;100.00;101231.97;4824954;29;20506;-84
2022/11/25 07:33:50;;;;;;;13.35;2.80;;;;;;;6.35;100.00;101234.59;4824111;29;20103;-84
2022/11/25 07:36:16;;;;;;;4.97;2.20;;;;;;;6.33;100.00;101235.47;4824263;29;20493;-84
2022/11/25 07:38:41;;;;;;;7.75;2.22;;;;;;;6.35;100.00;101242.47;4809229;29;20225;-85
2022/11/25 07:41:16;;;;;;;10.15;2.38;;;;;;;6.33;100.00;101243.34;4805331;29;20061;-85
2022/11/25 07:43:49;;;;;;;9.82;2.22;;;;;;;6.36;100.00;101251.28;4816639;29;20041;-83
2022/11/25 07:46:20;;;;;;;8.00;2.75;;;;;;;6.37;100.00;101259.16;4808569;29;20121;-84
2022/11/25 07:48:46;;;;;;;7.45;2.53;;;;;;;6.39;100.00;101274.94;4808393;29;20060;-84
2022/11/25 07:51:13;;;;;;;12.60;3.20;;;;;;;6.43;100.00;101274.09;4831045;29;20029;-84
2022/11/25 07:53:38;;;;;;;11.15;2.80;;;;;;;6.41;100.00;101263.56;4800754;29;20133;-83
2022/11/25 07:56:04;;;;;;;11.98;2.58;;;;;;;6.43;100.00;101269.72;4817905;29;20155;-84
2022/11/25 07:58:30;;;;;;;6.93;2.75;;;;;;;6.41;100.00;101273.22;4794384;29;20038;-84
2022/11/25 08:00:56;;;;;;;8.50;2.47;;;;;;;6.42;100.00;101275.81;4798678;29;20050;-83
2022/11/25 08:03:21;;;;;;;7.72;2.10;;;;;;;6.43;100.00;101287.25;4813021;29;20042;-84
2022/11/25 08:05:47;;;;;;;8.60;2.58;;;;;;;6.41;100.00;101275.84;4823247;29;20026;-84
2022/11/25 08:08:12;;;;;;;8.50;2.80;;;;;;;6.45;100.00;101293.38;4822627;29;20086;-83
2022/11/25 08:10:41;;;;;;;13.20;3.00;;;;;;;6.45;100.00;101301.25;4824375;29;20179;-85
2022/11/25 08:13:06;;;;;;;8.85;3.45;;;;;;;6.49;100.00;101303.03;4791756;29;20411;-84
2022/11/25 08:15:32;;;;;;;14.70;3.60;;;;;;;6.49;100.00;101310.06;4823700;29;20058;-84
2022/11/25 08:17:57;;;;;;;10.27;3.72;;;;;;;6.51;100.00;101310.94;4807259;29;20031;-85
2022/11/25 08:20:23;;;;;;;12.82;2.97;;;;;;;6.51;100.00;101303.91;4823182;29;20125;-84
2022/11/25 08:22:48;;;;;;;9.52;2.80;;;;;;;6.53;100.00;101312.69;4807630;29;20106;-84
2022/11/25 08:25:14;;;;;;;8.50;3.40;;;;;;;6.55;100.00;101316.22;4803627;29;20061;-84
2022/11/25 08:27:40;;;;;;;6.65;2.70;;;;;;;6.58;100.00;101318.84;4807048;29;20046;-84
2022/11/25 08:30:08;;;;;;;12.65;3.10;;;;;;;6.65;100.00;101314.47;4802118;29;20049;-83
2022/11/25 08:32:37;;;;;;;10.75;2.55;;;;;;;6.68;100.00;101312.72;4811230;29;20495;-84
2022/11/25 08:35:04;;;;;;;10.50;3.38;;;;;;;6.70;100.00;101315.38;4795284;29;20054;-84
2022/11/25 08:37:30;;;;;;;12.00;3.25;;;;;;;6.73;100.00;101315.38;4796934;29;20061;-84
2022/11/25 08:39:55;;;;;;;10.77;2.78;;;;;;;6.79;100.00;101318.00;4813579;29;20068;-84
2022/11/25 08:42:22;;;;;;;11.07;3.38;;;;;;;6.85;100.00;101323.28;4801058;29;20058;-84
2022/11/25 08:44:55;;;;;;;10.13;2.80;;;;;;;6.85;100.00;101325.91;4799516;29;20042;-84
2022/11/25 08:47:22;;;;;;;9.40;3.10;;;;;;;6.91;100.00;101327.66;4810612;29;20456;-84
2022/11/25 08:49:52;;;;;;;13.93;2.97;;;;;;;6.95;100.00;101334.72;4797359;29;20066;-84
2022/11/25 08:52:17;;;;;;;9.88;2.83;;;;;;;6.97;100.00;101330.28;4795869;29;20045;-84
2022/11/25 08:54:43;;;;;;;10.93;2.97;;;;;;;7.00;100.00;101330.31;4816092;29;20062;-84
2022/11/25 08:57:08;;;;;;;11.82;2.90;;;;;;;7.03;100.00;101338.22;4832892;29;20078;-84
2022/11/25 08:59:34;;;;;;;14.52;3.15;;;;;;;7.06;100.00;101337.34;4821605;29;20501;-85
2022/11/25 09:01:59;;;;;;;7.22;2.78;;;;;;;7.14;100.00;101343.47;4829193;29;20027;-85
2022/11/25 09:04:25;;;;;;;8.05;2.80;;;;;;;7.17;100.00;101345.22;4822805;29;20518;-85
2022/11/25 09:06:50;;;;;;;10.02;2.72;;;;;;;7.21;100.00;101341.72;4806277;29;20046;-84
2022/11/25 09:09:17;;;;;;;12.20;3.05;;;;;;;7.25;100.00;101341.72;4806668;29;20448;-83
2022/11/25 09:11:43;;;;;;;11.75;3.15;;;;;;;7.29;100.00;101346.13;4791166;29;20530;-83
2022/11/25 09:14:08;;;;;;;9.55;2.95;;;;;;;7.36;100.00;101354.88;4805796;29;20129;-84
2022/11/25 09:16:34;;;;;;;13.07;3.08;;;;;;;7.41;100.00;101357.53;4806017;29;20176;-84
2022/11/25 09:18:59;;;;;;;8.15;2.58;;;;;;;7.46;100.00;101356.63;4822746;29;20061;-84
2022/11/25 09:21:25;;;;;;;11.88;3.00;;;;;;;7.51;100.00;101361.91;4834126;29;20045;-84
2022/11/25 09:23:51;;;;;;;10.52;3.03;;;;;;;7.58;100.00;101375.97;4796281;29;20042;-83
2022/11/25 09:26:27;;;;;;;12.50;2.95;;;;;;;7.62;100.00;101359.28;4827094;29;20046;-85
2022/11/25 09:28:53;;;;;;;11.85;3.10;;;;;;;7.66;100.00;101375.06;4822754;29;20057;-84
2022/11/25 09:31:19;;;;;;;7.30;2.63;;;;;;;7.70;100.00;101374.19;4807201;29;20026;-83
2022/11/25 09:33:45;;;;;;;10.88;2.92;;;;;;;7.74;100.00;101383.00;4826471;29;20069;-84
2022/11/25 09:36:13;;;;;;;13.27;3.17;;;;;;;7.81;100.00;101389.97;4833649;29;20072;-84
2022/11/25 09:38:38;;;;;;;11.73;2.70;;;;;;;7.85;100.00;101394.38;4826188;29;20046;-84
2022/11/25 09:41:09;;;;;;;13.15;2.80;;;;;;;7.94;100.00;101404.91;4834368;29;20402;-84
2022/11/25 09:46:52;;;;;;;9.65;2.83;;;;;;;8.06;100.00;101403.13;4827307;29;20045;-84
2022/11/25 09:49:52;;;;;;;13.53;3.43;;;;;;;8.08;100.00;101399.59;4830588;29;20058;-84
2022/11/25 09:52:33;;;;;;;11.57;2.58;;;;;;;8.15;100.00;101403.97;4818265;29;20246;-84
2022/11/25 09:55:30;;;;;;;13.15;3.35;;;;;;;8.21;100.00;101408.38;4825609;29;20076;-84
2022/11/25 09:58:23;;;;;;;10.57;2.90;;;;;;;8.28;100.00;101412.72;4819558;29;20050;-85
2022/11/25 10:00:50;;;;;;;12.95;2.90;;;;;;;8.34;100.00;101415.34;4825340;29;20034;-85
2022/11/25 10:03:28;;;;;;;9.57;2.33;;;;;;;8.40;100.00;101411.84;4809525;29;20130;-84
2022/11/25 10:06:13;;;;;;;9.80;3.10;;;;;;;8.45;100.00;101419.75;4818718;29;20121;-84
2022/11/25 10:08:43;;;;;;;12.68;2.85;;;;;;;8.51;99.62;101419.75;4825509;29;20030;-84
2022/11/25 10:11:24;;;;;;;10.48;2.58;;;;;;;8.58;99.26;101427.63;4833674;29;20062;-84
2022/11/25 10:13:51;;;;;;;10.10;2.90;;;;;;;8.66;99.29;101438.16;4809435;29;20113;-85
2022/11/25 10:16:26;;;;;;;14.85;2.85;;;;;;;8.68;97.82;101441.66;4827679;29;20057;-85
2022/11/25 10:19:14;;;;;;;11.75;2.70;;;;;;;8.75;97.82;101451.31;4820953;29;20038;-85
2022/11/25 10:21:39;;;;;;;10.32;2.70;;;;;;;8.77;97.79;101444.25;4834251;29;20399;-84
2022/11/25 10:24:11;;;;;;;12.07;3.40;;;;;;;8.82;97.35;101449.50;4818558;29;20039;-84
2022/11/25 10:26:47;;;;;;;9.27;2.95;;;;;;;8.85;97.60;101441.56;4813172;29;20097;-85
2022/11/25 10:29:13;;;;;;;10.05;3.15;;;;;;;8.95;96.67;101451.22;4837248;29;20555;-85
2022/11/25 10:31:41;;;;;;;10.50;2.90;;;;;;;8.99;96.68;101460.84;4833500;29;20034;-84
2022/11/25 10:34:25;;;;;;;13.77;2.83;;;;;;;9.07;96.10;101454.66;4841575;29;20059;-88
2022/11/25 10:36:53;;;;;;;13.95;3.20;;;;;;;9.13;96.15;101468.72;4837515;29;20478;-84
2022/11/25 10:39:26;;;;;;;13.18;2.75;;;;;;;9.19;95.23;101470.44;4815870;29;20057;-83
2022/11/25 10:42:12;;;;;;;10.35;3.03;;;;;;;9.28;95.15;101477.44;4827424;29;20436;-84
2022/11/25 10:44:40;;;;;;;16.95;3.35;;;;;;;9.34;95.65;101469.47;4833498;29;20049;-85
2022/11/25 10:47:14;;;;;;;9.07;2.67;;;;;;;9.44;92.71;101484.38;4817073;29;20157;-85
2022/11/25 10:50:02;;;;;;;10.13;2.85;;;;;;;9.49;92.37;101477.28;4825468;29;20110;-85
2022/11/25 10:52:33;;;;;;;12.80;3.22;;;;;;;9.54;91.43;101479.91;4809003;29;20448;-84
2022/11/25 10:55:10;;;;;;;16.08;3.53;;;;;;;9.68;92.73;101481.53;4825643;29;20054;-84
2022/11/25 10:57:36;;;;;;;9.32;2.72;;;;;;;9.69;90.56;101477.13;4806061;29;20480;-85
2022/11/25 11:00:04;;;;;;;8.80;3.10;;;;;;;9.72;88.85;101481.50;4787664;29;20035;-85
2022/11/25 11:02:39;;;;;;;11.02;2.70;;;;;;;9.75;88.21;101485.03;4822489;29;20402;-83
2022/11/25 11:05:08;;;;;;;5.93;2.60;;;;;;;9.80;87.47;101487.63;4812532;29;20041;-84
2022/11/25 11:07:42;;;;;;;9.07;2.95;;;;;;;9.86;86.53;101490.22;4825669;29;20041;-84
2022/11/25 11:10:19;;;;;;;10.98;2.63;;;;;;;9.84;87.75;101492.91;4826181;29;20109;-86
2022/11/25 11:13:03;;;;;;;17.98;3.58;;;;;;;9.94;86.64;101498.09;4809145;29;20502;-84
2022/11/25 11:15:32;;;;;;;10.57;3.00;;;;;;;9.96;87.48;101504.25;4797284;29;20102;-85
2022/11/25 11:18:13;;;;;;;9.70;2.92;;;;;;;10.02;85.80;101509.50;4809171;29;20413;-85
2022/11/25 11:20:45;;;;;;;9.90;4.00;;;;;;;10.04;85.70;101505.06;4813868;29;20050;-85
2022/11/25 11:23:13;;;;;;;7.40;2.40;;;;;;;10.08;85.26;101510.31;4793935;29;20074;-85
2022/11/25 11:25:52;;;;;;;14.32;2.72;;;;;;;10.14;85.41;101512.03;4825171;29;20049;-85
2022/11/25 11:28:27;;;;;;;11.73;3.00;;;;;;;10.18;85.17;101519.03;4804023;29;20114;-85
2022/11/25 11:31:13;;;;;;;8.70;2.90;;;;;;;10.30;84.69;101523.38;4808946;29;20046;-86
2022/11/25 11:33:47;;;;;;;6.80;2.63;;;;;;;10.33;84.44;101526.00;4825814;29;20045;-84
2022/11/25 11:36:39;;;;;;;11.55;3.00;;;;;;;10.40;84.44;101527.69;4831508;29;20046;-86